createdAt,value
2023-08-31T00:01:36.485Z,3.28
2023-08-31T00:04:03.808Z,3.28
2023-08-31T00:06:30.456Z,3.10
2023-08-31T00:08:57.140Z,3.05
2023-08-31T00:11:24.824Z,3.42
2023-08-31T00:13:51.460Z,3.75
2023-08-31T00:16:18.163Z,3.30
2023-08-31T00:18:46.173Z,3.47
2023-08-31T00:21:12.873Z,3.75
2023-08-31T00:23:39.624Z,3.53
2023-08-31T00:26:08.002Z,3.83
2023-08-31T00:28:34.683Z,3.70
2023-08-31T00:31:04.613Z,3.80
2023-08-31T00:33:31.817Z,4.07
2023-08-31T00:36:04.711Z,4.47
2023-08-31T00:38:32.239Z,4.13
2023-08-31T00:40:59.245Z,4.07
2023-08-31T00:43:25.928Z,4.35
2023-08-31T00:45:57.415Z,3.45
2023-08-31T00:48:24.317Z,4.30
2023-08-31T00:50:51.712Z,4.25
2023-08-31T00:53:19.280Z,4.50
2023-08-31T00:55:46.673Z,4.50
2023-08-31T00:58:13.350Z,4.40
2023-08-31T01:01:11.039Z,4.32
2023-08-31T01:04:14.213Z,4.25
2023-08-31T01:07:10.441Z,4.43
2023-08-31T01:10:05.269Z,4.53
2023-08-31T01:12:57.231Z,5.00
2023-08-31T01:15:24.831Z,5.07
2023-08-31T01:17:55.580Z,5.13
2023-08-31T01:20:33.535Z,4.80
2023-08-31T01:23:07.769Z,5.35
2023-08-31T01:25:34.844Z,4.18
2023-08-31T01:28:02.420Z,4.68
2023-08-31T01:30:32.576Z,4.72
2023-08-31T01:32:59.948Z,5.28
2023-08-31T01:35:27.580Z,4.50
2023-08-31T01:38:00.108Z,5.85
2023-08-31T01:40:33.255Z,5.53
2023-08-31T01:43:02.338Z,5.65
2023-08-31T01:45:29.307Z,7.15
2023-08-31T01:47:57.223Z,5.43
2023-08-31T01:50:24.128Z,5.75
2023-08-31T01:52:50.775Z,4.78
2023-08-31T01:55:17.645Z,5.53
2023-08-31T01:57:44.380Z,5.82
2023-08-31T02:00:11.748Z,5.18
2023-08-31T02:02:38.662Z,5.07
2023-08-31T02:05:05.664Z,5.07
2023-08-31T02:07:32.282Z,5.65
2023-08-31T02:09:58.901Z,5.40
2023-08-31T02:12:25.902Z,5.50
2023-08-31T02:14:52.630Z,6.22
2023-08-31T02:17:19.334Z,5.85
2023-08-31T02:19:46.174Z,6.68
2023-08-31T02:22:12.866Z,5.85
2023-08-31T02:24:39.488Z,6.43
2023-08-31T02:27:06.144Z,5.78
2023-08-31T02:29:32.961Z,6.38
2023-08-31T02:31:59.679Z,6.50
2023-08-31T02:34:26.396Z,6.55
2023-08-31T02:36:53.064Z,6.93
2023-08-31T02:39:19.890Z,7.15
2023-08-31T02:41:46.526Z,7.43
2023-08-31T02:44:13.208Z,7.78
2023-08-31T02:46:40.016Z,6.75
2023-08-31T02:49:06.869Z,6.65
2023-08-31T02:51:33.524Z,7.82
2023-08-31T02:54:00.176Z,7.18
2023-08-31T02:56:26.854Z,7.07
2023-08-31T02:58:53.516Z,7.95
2023-08-31T03:01:20.179Z,8.18
2023-08-31T03:03:47.753Z,8.38
2023-08-31T03:06:14.653Z,7.03
2023-08-31T03:08:41.316Z,7.30
2023-08-31T03:11:08.127Z,7.47
2023-08-31T03:13:35.498Z,7.55
2023-08-31T03:16:02.780Z,6.72
2023-08-31T03:18:29.962Z,6.85
2023-08-31T03:20:57.355Z,7.70
2023-08-31T03:23:24.032Z,7.00
2023-08-31T03:25:50.700Z,7.78
2023-08-31T03:28:17.601Z,6.90
2023-08-31T03:30:46.277Z,7.10
2023-08-31T03:33:16.159Z,7.72
2023-08-31T03:35:43.157Z,8.10
2023-08-31T03:38:09.808Z,7.97
2023-08-31T03:40:36.459Z,7.60
2023-08-31T03:43:03.140Z,7.10
2023-08-31T03:45:29.870Z,8.18
2023-08-31T03:47:56.747Z,8.77
2023-08-31T03:50:23.412Z,7.13
2023-08-31T03:52:50.207Z,7.75
2023-08-31T03:55:16.975Z,8.18
2023-08-31T03:57:44.229Z,7.45
2023-08-31T04:00:13.564Z,7.20
2023-08-31T04:02:40.377Z,6.82
2023-08-31T04:05:07.378Z,6.55
2023-08-31T04:07:36.222Z,7.65
2023-08-31T04:10:04.675Z,6.85
2023-08-31T04:12:31.702Z,7.55
2023-08-31T04:14:58.626Z,7.35
2023-08-31T04:17:25.405Z,6.93
2023-08-31T04:19:52.217Z,7.97
2023-08-31T04:22:19.223Z,6.97
2023-08-31T04:24:47.242Z,7.35
2023-08-31T04:27:14.004Z,7.50
2023-08-31T04:29:40.675Z,7.60
2023-08-31T04:32:07.357Z,7.53
2023-08-31T04:34:34.089Z,7.05
2023-08-31T04:37:00.846Z,7.97
2023-08-31T04:39:27.912Z,8.00
2023-08-31T04:41:54.998Z,7.78
2023-08-31T04:44:21.810Z,7.03
2023-08-31T04:46:48.446Z,6.40
2023-08-31T04:49:15.259Z,6.72
2023-08-31T04:51:42.866Z,7.68
2023-08-31T04:54:09.872Z,8.18
2023-08-31T04:56:36.834Z,7.97
2023-08-31T04:59:06.846Z,8.38
2023-08-31T05:01:33.648Z,9.00
2023-08-31T05:04:00.470Z,9.40
2023-08-31T05:06:27.573Z,8.05
2023-08-31T05:08:54.275Z,8.32
2023-08-31T05:11:20.997Z,8.65
2023-08-31T05:13:49.468Z,9.23
2023-08-31T05:16:16.360Z,8.98
2023-08-31T05:18:43.034Z,9.80
2023-08-31T05:21:09.780Z,9.50
2023-08-31T05:23:36.537Z,9.40
2023-08-31T05:26:03.517Z,8.73
2023-08-31T05:28:30.241Z,10.30
2023-08-31T05:30:59.154Z,10.23
2023-08-31T05:33:30.089Z,10.57
2023-08-31T05:35:56.896Z,10.15
2023-08-31T05:38:24.506Z,9.48
2023-08-31T05:40:51.229Z,10.48
2023-08-31T05:43:17.982Z,9.73
2023-08-31T05:45:44.736Z,10.38
2023-08-31T05:48:11.609Z,10.90
2023-08-31T05:50:38.396Z,11.77
2023-08-31T05:53:06.410Z,10.23
2023-08-31T05:55:33.868Z,10.43
2023-08-31T05:58:01.725Z,10.57
2023-08-31T06:00:28.571Z,10.07
2023-08-31T06:02:55.363Z,10.05
2023-08-31T06:05:22.111Z,11.02
2023-08-31T06:07:48.790Z,9.05
2023-08-31T06:10:16.291Z,9.57
2023-08-31T06:12:43.160Z,8.88
2023-08-31T06:15:10.337Z,9.52
2023-08-31T06:17:37.148Z,8.70
2023-08-31T06:20:06.551Z,9.77
2023-08-31T06:22:33.546Z,9.50
2023-08-31T06:25:00.581Z,8.85
2023-08-31T06:27:27.541Z,8.10
2023-08-31T06:29:54.263Z,8.00
2023-08-31T06:32:20.983Z,7.50
2023-08-31T06:34:47.971Z,7.28
2023-08-31T06:37:14.642Z,6.25
2023-08-31T06:39:42.042Z,6.25
2023-08-31T06:42:08.942Z,5.82
2023-08-31T06:44:35.810Z,4.85
2023-08-31T06:47:02.702Z,4.30
2023-08-31T06:49:31.158Z,4.60
2023-08-31T06:51:58.028Z,3.55
2023-08-31T06:54:24.847Z,3.65
2023-08-31T06:56:51.611Z,3.90
2023-08-31T06:59:18.393Z,3.50
2023-08-31T07:01:45.053Z,3.58
2023-08-31T07:04:11.754Z,3.42
2023-08-31T07:06:39.013Z,3.92
2023-08-31T07:09:07.972Z,4.15
2023-08-31T07:11:34.810Z,3.38
2023-08-31T07:14:01.951Z,2.83
2023-08-31T07:16:28.608Z,3.30
2023-08-31T07:18:55.466Z,3.40
2023-08-31T07:21:23.413Z,3.28
2023-08-31T07:23:50.032Z,3.13
2023-08-31T07:28:57.747Z,2.90
2023-08-31T07:31:24.592Z,3.17
2023-08-31T07:33:51.343Z,2.90
2023-08-31T07:36:18.109Z,2.90
2023-08-31T07:38:44.805Z,3.50
2023-08-31T07:41:11.493Z,3.38
2023-08-31T07:43:39.593Z,3.30
2023-08-31T07:46:10.077Z,3.15
2023-08-31T07:48:36.732Z,3.17
2023-08-31T07:51:04.423Z,2.50
2023-08-31T07:53:31.164Z,2.88
2023-08-31T07:55:57.974Z,2.80
2023-08-31T07:58:24.789Z,2.58
2023-08-31T08:00:55.936Z,2.70
2023-08-31T08:03:26.776Z,2.55
2023-08-31T08:05:53.758Z,2.60
2023-08-31T08:08:20.757Z,2.45
2023-08-31T08:10:47.435Z,2.45
2023-08-31T08:13:14.397Z,2.13
2023-08-31T08:15:41.469Z,2.45
2023-08-31T08:18:08.222Z,1.90
2023-08-31T08:20:34.992Z,1.58
2023-08-31T08:23:01.669Z,2.05
2023-08-31T08:25:28.339Z,1.80
2023-08-31T08:27:54.995Z,2.47
2023-08-31T08:30:21.805Z,2.13
2023-08-31T08:32:48.899Z,1.75
2023-08-31T08:35:15.686Z,1.70
2023-08-31T08:37:42.414Z,2.15
2023-08-31T08:40:10.965Z,1.77
2023-08-31T08:42:43.019Z,2.00
2023-08-31T08:47:47.734Z,1.80
2023-08-31T08:50:14.960Z,1.55
2023-08-31T08:52:43.008Z,1.48
2023-08-31T08:55:10.853Z,1.75
2023-08-31T08:57:37.619Z,1.80
2023-08-31T09:00:06.125Z,1.92
2023-08-31T09:02:32.867Z,2.03
2023-08-31T09:04:59.613Z,2.00
2023-08-31T09:07:28.060Z,1.40
2023-08-31T09:09:55.488Z,1.67
2023-08-31T09:12:25.083Z,1.73
2023-08-31T09:15:00.047Z,1.75
2023-08-31T09:17:27.804Z,1.85
2023-08-31T09:20:02.066Z,1.50
2023-08-31T09:22:29.009Z,1.73
2023-08-31T09:24:55.748Z,1.77
2023-08-31T09:27:24.111Z,1.70
2023-08-31T09:29:50.910Z,2.00
2023-08-31T09:32:18.771Z,1.58
2023-08-31T09:34:46.178Z,2.40
2023-08-31T09:37:13.475Z,1.20
2023-08-31T09:39:43.671Z,1.33
2023-08-31T09:42:10.756Z,1.52
2023-08-31T09:44:43.825Z,1.40
2023-08-31T09:47:10.685Z,1.15
2023-08-31T09:49:39.580Z,1.30
2023-08-31T09:52:07.572Z,1.52
2023-08-31T09:54:36.035Z,1.90
2023-08-31T09:57:03.701Z,1.67
2023-08-31T09:59:31.059Z,1.30
2023-08-31T10:01:58.254Z,1.40
2023-08-31T10:04:25.599Z,1.55
2023-08-31T10:06:53.145Z,1.52
2023-08-31T10:09:20.473Z,1.40
2023-08-31T10:11:48.121Z,1.50
2023-08-31T10:14:16.130Z,1.10
2023-08-31T10:16:45.724Z,1.50
2023-08-31T10:19:12.609Z,1.50
2023-08-31T10:21:41.623Z,1.45
2023-08-31T10:24:08.423Z,1.38
2023-08-31T10:26:35.164Z,1.55
2023-08-31T10:29:05.148Z,1.50
2023-08-31T10:31:34.970Z,1.92
2023-08-31T10:34:07.631Z,1.38
2023-08-31T10:36:40.190Z,1.55
2023-08-31T10:39:09.261Z,1.30
2023-08-31T10:41:38.537Z,1.40
2023-08-31T10:44:42.524Z,1.52
2023-08-31T10:47:09.540Z,1.63
2023-08-31T10:49:38.093Z,1.60
2023-08-31T10:54:56.186Z,1.70
2023-08-31T10:57:32.100Z,1.70
2023-08-31T10:59:59.798Z,1.60
2023-08-31T11:02:39.188Z,1.67
2023-08-31T11:05:08.971Z,1.30
2023-08-31T11:07:37.977Z,2.28
2023-08-31T11:10:25.988Z,1.60
2023-08-31T11:12:55.618Z,1.55
2023-08-31T11:15:46.128Z,1.65
2023-08-31T11:18:13.585Z,1.48
2023-08-31T11:20:40.812Z,1.45
2023-08-31T11:23:07.973Z,1.50
2023-08-31T11:25:34.781Z,1.65
2023-08-31T11:28:05.446Z,1.40
2023-08-31T11:30:33.178Z,1.40
2023-08-31T11:33:10.188Z,1.38
2023-08-31T11:35:40.910Z,1.33
2023-08-31T11:38:08.120Z,1.42
2023-08-31T11:40:35.006Z,1.50
2023-08-31T11:43:01.768Z,1.50
2023-08-31T11:45:29.116Z,1.20
2023-08-31T11:47:56.569Z,1.50
2023-08-31T11:50:24.619Z,1.00
2023-08-31T11:52:54.274Z,1.00
2023-08-31T11:55:21.843Z,1.35
2023-08-31T11:57:52.691Z,1.23
2023-08-31T12:00:23.405Z,1.33
2023-08-31T12:03:04.382Z,1.65
2023-08-31T12:05:46.702Z,1.20
2023-08-31T12:08:14.004Z,0.95
2023-08-31T12:10:44.119Z,1.10
2023-08-31T12:13:12.410Z,1.17
2023-08-31T12:15:39.756Z,1.27
2023-08-31T12:18:10.380Z,1.08
2023-08-31T12:20:44.997Z,1.25
2023-08-31T12:23:11.908Z,1.33
2023-08-31T12:25:39.220Z,1.20
2023-08-31T12:28:06.053Z,1.23
2023-08-31T12:30:32.930Z,1.20
2023-08-31T12:32:59.619Z,1.58
2023-08-31T12:35:26.276Z,1.30
2023-08-31T12:37:52.938Z,1.20
2023-08-31T12:40:21.051Z,1.23
2023-08-31T12:42:47.782Z,1.45
2023-08-31T12:45:14.522Z,1.27
2023-08-31T12:47:41.198Z,1.25
2023-08-31T12:50:08.236Z,1.50
2023-08-31T12:52:34.982Z,1.40
2023-08-31T12:55:01.698Z,1.60
2023-08-31T12:57:28.422Z,1.60
2023-08-31T12:59:55.204Z,1.20
2023-08-31T13:02:21.914Z,1.52
2023-08-31T13:04:48.704Z,1.33
2023-08-31T13:07:15.368Z,1.45
2023-08-31T13:09:42.039Z,1.40
2023-08-31T13:12:08.806Z,1.27
2023-08-31T13:14:35.760Z,1.65
2023-08-31T13:17:02.891Z,1.63
2023-08-31T13:19:30.117Z,1.38
2023-08-31T13:21:56.889Z,1.35
2023-08-31T13:24:23.676Z,1.30
2023-08-31T13:26:50.362Z,1.85
2023-08-31T13:29:17.809Z,1.40
2023-08-31T13:31:44.848Z,1.40
2023-08-31T13:34:11.891Z,1.05
2023-08-31T13:36:38.606Z,1.30
2023-08-31T13:39:05.399Z,1.50
2023-08-31T13:41:32.205Z,1.30
2023-08-31T13:43:58.890Z,1.23
2023-08-31T13:46:25.776Z,1.05
2023-08-31T13:48:52.459Z,0.93
2023-08-31T13:51:19.130Z,1.20
2023-08-31T13:53:47.280Z,1.20
2023-08-31T13:56:14.334Z,1.17
2023-08-31T13:58:42.133Z,0.90
2023-08-31T14:01:08.912Z,0.90
2023-08-31T14:03:35.738Z,0.73
2023-08-31T14:06:04.525Z,0.90
2023-08-31T14:08:38.942Z,1.05
2023-08-31T14:11:06.196Z,0.80
2023-08-31T14:13:32.898Z,0.90
2023-08-31T14:16:00.432Z,0.93
2023-08-31T14:18:31.255Z,0.90
2023-08-31T14:20:59.834Z,1.00
2023-08-31T14:23:28.420Z,0.95
2023-08-31T14:25:55.114Z,1.00
2023-08-31T14:28:22.466Z,0.95
2023-08-31T14:30:49.129Z,1.20
2023-08-31T14:33:15.867Z,1.40
2023-08-31T14:35:42.562Z,1.00
2023-08-31T14:40:42.393Z,0.88
2023-08-31T14:43:09.107Z,0.95
2023-08-31T14:45:35.794Z,0.85
2023-08-31T14:48:02.717Z,0.90
2023-08-31T14:50:29.406Z,0.90
2023-08-31T14:52:56.360Z,1.02
2023-08-31T14:55:23.050Z,1.10
2023-08-31T14:57:49.754Z,1.10
2023-08-31T15:00:16.633Z,0.85
2023-08-31T15:02:43.422Z,0.95
2023-08-31T15:05:10.243Z,0.90
2023-08-31T15:07:37.018Z,0.80
2023-08-31T15:10:04.415Z,1.00
2023-08-31T15:12:31.140Z,0.80
2023-08-31T15:14:57.932Z,1.05
2023-08-31T15:17:24.665Z,0.90
2023-08-31T15:19:54.254Z,1.08
2023-08-31T15:22:21.028Z,0.82
2023-08-31T15:24:47.707Z,0.77
2023-08-31T15:27:14.342Z,1.00
2023-08-31T15:29:41.000Z,0.95
2023-08-31T15:32:08.742Z,0.80
2023-08-31T15:34:35.438Z,1.25
2023-08-31T15:37:02.128Z,0.93
2023-08-31T15:39:28.976Z,1.08
2023-08-31T15:41:55.625Z,0.85
2023-08-31T15:44:22.249Z,1.00
2023-08-31T15:46:51.539Z,0.85
2023-08-31T15:49:18.652Z,1.10
2023-08-31T15:51:45.361Z,1.52
2023-08-31T15:54:12.076Z,1.00
2023-08-31T15:56:38.850Z,1.02
2023-08-31T15:59:05.490Z,0.70
2023-08-31T16:01:32.514Z,0.75
2023-08-31T16:03:59.950Z,1.05
2023-08-31T16:06:26.619Z,1.38
2023-08-31T16:08:53.329Z,0.90
2023-08-31T16:11:23.602Z,1.02
2023-08-31T16:13:50.603Z,0.80
2023-08-31T16:16:17.870Z,0.88
2023-08-31T16:18:44.753Z,1.00
2023-08-31T16:21:11.549Z,0.82
2023-08-31T16:23:38.209Z,0.80
2023-08-31T16:26:04.843Z,0.88
2023-08-31T16:28:31.730Z,1.25
2023-08-31T16:30:58.522Z,1.02
2023-08-31T16:33:26.058Z,0.73
2023-08-31T16:36:04.546Z,0.82
2023-08-31T16:40:58.237Z,0.82
2023-08-31T16:43:25.193Z,0.90
2023-08-31T16:45:52.538Z,1.13
2023-08-31T16:48:19.352Z,1.00
2023-08-31T16:50:46.064Z,1.10
2023-08-31T16:53:12.789Z,0.98
2023-08-31T16:55:45.644Z,1.00
2023-08-31T16:58:12.660Z,1.60
2023-08-31T17:00:39.611Z,1.55
2023-08-31T17:03:06.514Z,0.90
2023-08-31T17:05:33.386Z,1.00
2023-08-31T17:08:00.000Z,1.10
2023-08-31T17:10:26.667Z,2.35
2023-08-31T17:12:54.018Z,1.20
2023-08-31T17:15:20.790Z,0.93
2023-08-31T17:17:49.327Z,1.27
2023-08-31T17:20:20.125Z,1.65
2023-08-31T17:22:47.548Z,1.17
2023-08-31T17:25:14.521Z,1.20
2023-08-31T17:27:41.514Z,1.45
2023-08-31T17:30:08.765Z,1.55
2023-08-31T17:32:38.670Z,1.73
2023-08-31T17:35:07.228Z,1.50
2023-08-31T17:37:35.056Z,1.63
2023-08-31T17:40:08.279Z,1.55
2023-08-31T17:42:37.639Z,1.20
2023-08-31T17:45:07.999Z,1.30
2023-08-31T17:47:34.856Z,1.23
2023-08-31T17:50:02.122Z,0.90
2023-08-31T17:52:28.847Z,1.50
2023-08-31T17:54:55.663Z,1.38
2023-08-31T17:57:23.724Z,1.40
2023-08-31T17:59:50.432Z,1.30
2023-08-31T18:02:17.179Z,1.45
2023-08-31T18:04:43.878Z,2.40
2023-08-31T18:07:10.598Z,1.88
2023-08-31T18:09:40.140Z,2.20
2023-08-31T18:12:08.566Z,2.10
2023-08-31T18:14:36.841Z,2.30
2023-08-31T18:17:04.792Z,1.70
2023-08-31T18:19:31.649Z,1.80
2023-08-31T18:21:58.992Z,1.90
2023-08-31T18:24:26.151Z,1.88
2023-08-31T18:26:52.868Z,1.92
2023-08-31T18:29:20.023Z,2.08
2023-08-31T18:31:47.271Z,1.52
2023-08-31T18:34:14.039Z,1.13
2023-08-31T18:36:41.897Z,1.25
2023-08-31T18:39:08.544Z,1.38
2023-08-31T18:41:37.464Z,1.20
2023-08-31T18:44:04.236Z,1.00
2023-08-31T18:46:31.024Z,1.33
2023-08-31T18:48:58.215Z,1.20
2023-08-31T18:51:25.151Z,1.25
2023-08-31T18:53:51.818Z,1.20
2023-08-31T18:56:18.759Z,2.33
2023-08-31T18:58:45.843Z,1.20
2023-08-31T19:01:12.682Z,0.98
2023-08-31T19:03:39.501Z,1.13
2023-08-31T19:06:06.287Z,1.35
2023-08-31T19:08:33.138Z,1.27
2023-08-31T19:11:07.052Z,1.20
2023-08-31T19:13:34.021Z,1.40
2023-08-31T19:16:02.704Z,1.17
2023-08-31T19:18:29.647Z,1.30
2023-08-31T19:21:10.381Z,1.05
2023-08-31T19:23:44.853Z,1.55
2023-08-31T19:26:11.897Z,1.65
2023-08-31T19:28:38.786Z,1.73
2023-08-31T19:31:06.051Z,1.70
2023-08-31T19:33:33.232Z,1.80
2023-08-31T19:36:00.141Z,1.80
2023-08-31T19:38:27.315Z,1.60
2023-08-31T19:40:54.180Z,2.00
2023-08-31T19:43:20.851Z,1.40
2023-08-31T19:45:47.624Z,1.40
2023-08-31T19:48:17.540Z,1.50
2023-08-31T19:50:44.606Z,1.90
2023-08-31T19:53:11.350Z,1.63
2023-08-31T19:55:38.929Z,1.52
2023-08-31T19:58:05.627Z,1.48
2023-08-31T20:00:32.449Z,1.58
2023-08-31T20:03:00.262Z,1.95
2023-08-31T20:05:27.192Z,1.60
2023-08-31T20:07:54.862Z,1.70
2023-08-31T20:10:23.049Z,1.50
2023-08-31T20:12:50.803Z,2.10
2023-08-31T20:15:18.069Z,2.00
2023-08-31T20:17:46.196Z,1.60
2023-08-31T20:20:14.242Z,1.70
2023-08-31T20:22:42.095Z,2.15
2023-08-31T20:25:09.753Z,2.35
2023-08-31T20:27:36.453Z,2.42
2023-08-31T20:30:03.344Z,1.92
2023-08-31T20:32:30.326Z,1.88
2023-08-31T20:34:57.264Z,2.25
2023-08-31T20:37:24.713Z,1.77
2023-08-31T20:39:51.500Z,1.88
2023-08-31T20:42:18.395Z,2.08
2023-08-31T20:44:45.096Z,2.08
2023-08-31T20:47:13.818Z,1.90
2023-08-31T20:49:40.672Z,2.20
2023-08-31T20:52:07.645Z,1.98
2023-08-31T20:54:35.242Z,2.40
2023-08-31T20:57:02.041Z,1.75
2023-08-31T20:59:30.551Z,2.30
2023-08-31T21:01:58.014Z,2.33
2023-08-31T21:04:24.868Z,2.70
2023-08-31T21:06:51.643Z,2.17
2023-08-31T21:09:18.360Z,2.53
2023-08-31T21:11:45.257Z,2.30
2023-08-31T21:14:11.993Z,2.50
2023-08-31T21:16:38.916Z,2.58
2023-08-31T21:19:06.293Z,3.28
2023-08-31T21:21:33.487Z,2.33
2023-08-31T21:24:00.138Z,2.72
2023-08-31T21:26:26.930Z,2.40
2023-08-31T21:28:53.609Z,2.80
2023-08-31T21:31:20.325Z,2.60
2023-08-31T21:33:47.183Z,2.90
2023-08-31T21:36:13.800Z,3.17
2023-08-31T21:38:40.423Z,2.95
2023-08-31T21:41:07.484Z,2.72
2023-08-31T21:43:34.875Z,2.65
2023-08-31T21:46:02.341Z,2.88
2023-08-31T21:48:30.358Z,3.08
2023-08-31T21:50:57.121Z,3.20
2023-08-31T21:53:25.017Z,2.78
2023-08-31T21:55:51.939Z,3.33
2023-08-31T21:58:18.563Z,3.28
2023-08-31T22:00:45.200Z,3.90
2023-08-31T22:03:11.915Z,3.88
2023-08-31T22:05:40.451Z,4.03
2023-08-31T22:08:07.669Z,3.47
2023-08-31T22:10:34.791Z,4.05
2023-08-31T22:13:01.712Z,5.07
2023-08-31T22:15:28.650Z,4.20
2023-08-31T22:17:57.803Z,4.72
2023-08-31T22:20:31.565Z,4.97
2023-08-31T22:23:01.707Z,4.18
2023-08-31T22:25:29.281Z,4.40
2023-08-31T22:28:00.201Z,4.13
2023-08-31T22:30:27.524Z,3.25
2023-08-31T22:32:57.310Z,3.85
2023-08-31T22:35:24.201Z,3.90
2023-08-31T22:37:51.845Z,4.00
2023-08-31T22:40:18.670Z,4.65
2023-08-31T22:42:45.356Z,4.05
2023-08-31T22:45:12.563Z,4.30
2023-08-31T22:47:39.312Z,3.83
2023-08-31T22:50:07.613Z,3.90
2023-08-31T22:52:34.339Z,4.05
2023-08-31T22:55:01.094Z,4.10
2023-08-31T22:57:27.859Z,4.35
2023-08-31T22:59:54.938Z,4.10
2023-08-31T23:02:21.933Z,4.20
2023-08-31T23:04:49.702Z,4.60
2023-08-31T23:07:16.423Z,4.32
2023-08-31T23:09:43.100Z,3.00
2023-08-31T23:12:09.780Z,3.75
2023-08-31T23:14:37.058Z,4.22
2023-08-31T23:17:03.900Z,3.78
2023-08-31T23:19:30.779Z,4.20
2023-08-31T23:21:57.645Z,3.08
2023-08-31T23:24:24.373Z,4.45
2023-08-31T23:26:51.060Z,3.17
2023-08-31T23:29:17.793Z,3.63
2023-08-31T23:31:44.609Z,3.30
2023-08-31T23:34:11.374Z,3.50
2023-08-31T23:36:38.258Z,3.35
2023-08-31T23:39:10.255Z,3.33
2023-08-31T23:41:38.143Z,3.20
2023-08-31T23:44:05.293Z,3.75
2023-08-31T23:46:32.393Z,3.65
2023-08-31T23:48:59.306Z,3.30
2023-08-31T23:51:27.922Z,4.50
2023-08-31T23:53:55.845Z,4.20
2023-08-31T23:56:22.904Z,3.97
2023-08-31T23:58:49.734Z,5.18
